Aeroporto :
LOGIN :

Iscrizione | Disclaimer

   EN    FR    IT 

 










Sommario :    VFR   VFR Marginale   IFR   IFR Intensivo   IFR Molto Intensivo
Visibilità : 
Base nubi : 
>= 8 km
>= 3000ft
5 / 8 km
1000 / 3000 ft
1500m / 5 km
500 / 1000 ft
800 / 1500m
200 / 500 ft
< 800m
< 200 ft
Simboli :   Temporali  Nebbia  Neve Forte  Precipitazioni Forti  Vento > 20 kt
SIGMETs :   Varie  Temporali  Ghiacco  Turbolenza  Onda orograficha  Ceneri Vulcaniche






- Altitudine del aeroporto : 219 ft
- Codice IATA : DNR


LFRD - Dinard

ULTIMO METAR :
  • 060600Z AUTO 31004KT 9999 FEW012 OVC024 11/10 Q1015

METARs OBSOLETI :
  • 060530Z AUTO 31007KT 9999 BKN010 OVC022 11/10 Q1014
  • 060500Z AUTO 23008KT 9999 FEW024 BKN036 12/11 Q1013
  • 060430Z AUTO 22007KT 9999 FEW027 BKN070 BKN240 12/10 Q1013
  • 060400Z AUTO 20008KT 9999 FEW025 SCT210 OVC240 12/10 Q1013
  • 060330Z AUTO 21007KT 9999 BKN016 BKN023 OVC230 13/11 Q1012

Previsioni scadute.
ATIS : +33 2 99 16 81 50



MetMap, La meteo Aeronautica in un colpo d'occhio ! - Copyright ORBIFLY Dicembre 2007 - Disclaimer

ORBIFLY MET'MAP TEAM :

Programmazione e sviluppo : Alexandra Zaïnal
Concezione : Baudouin d'Aumeries
Aiuto per la programmazione : Marc-Olivier Méhu
Supporto tecnico e logistico : Manuel Goepfert
Aiuto per la traduzione : Arnaldo La Scala

Contatto : metmap@orbifly.com




FONTI E CREDITI :

   NOAA